Time;durP1;ratioP1;P1;durP2;ratioP2;P2;SDS_P1;SDS_P2;PMS_P1;PMS_P2;Temp;Humidity;BMP_temperature;BMP_pressure;BME280_temperature;BME280_humidity;BME280_pressure;Samples;Min_cycle;Max_cycle;Signal;HPM_P1;HPM_P2
2022/01/02 00:01:08;;;;;;;5.18;2.80;;;;;;;11.16;80.13;97476.72;5026275;28;20216;-76
2022/01/02 00:03:40;;;;;;;4.53;2.53;;;;;;;10.82;80.25;97449.81;5026250;28;20059;-77
2022/01/02 00:06:07;;;;;;;4.53;2.50;;;;;;;10.91;80.55;97459.53;5024234;28;20094;-68
2022/01/02 00:08:41;;;;;;;3.47;2.45;;;;;;;11.09;79.90;97487.66;5026389;28;20490;-67
2022/01/02 00:11:12;;;;;;;4.05;2.72;;;;;;;10.87;79.47;97455.88;5024506;28;20053;-67
2022/01/02 00:13:47;;;;;;;5.93;2.80;;;;;;;10.87;78.89;97430.13;5024634;28;20072;-67
2022/01/02 00:16:17;;;;;;;6.80;3.13;;;;;;;10.79;79.40;97445.00;5025533;28;20060;-66
2022/01/02 00:19:04;;;;;;;4.90;2.10;;;;;;;10.73;79.25;97452.00;5025130;28;20060;-66
2022/01/02 00:21:38;;;;;;;;;;;;;;;11.13;79.18;97494.09;5024812;28;20053;-67
2022/01/02 00:24:12;;;;;;;4.73;2.43;;;;;;;11.04;79.06;97494.28;5009237;28;20319;-66
2022/01/02 00:26:45;;;;;;;5.38;2.38;;;;;;;11.15;78.06;97497.28;5021569;28;20319;-67
2022/01/02 00:29:12;;;;;;;4.00;2.20;;;;;;;10.95;77.67;97456.84;5004402;28;20058;-66
2022/01/02 00:31:40;;;;;;;4.28;1.95;;;;;;;11.05;77.98;97484.00;5006037;28;20050;-74
2022/01/02 00:34:09;;;;;;;4.28;2.40;;;;;;;11.26;77.80;97501.09;5005832;28;20057;-67
2022/01/02 00:36:36;;;;;;;4.18;2.08;;;;;;;11.30;77.06;97510.31;5005869;28;20061;-67
2022/01/02 00:39:04;;;;;;;5.20;2.30;;;;;;;11.22;77.41;97509.34;5005766;28;20068;-67
2022/01/02 00:41:36;;;;;;;4.45;2.53;;;;;;;11.19;77.48;97512.03;5005732;28;20409;-76
2022/01/02 00:44:37;;;;;;;4.18;2.25;;;;;;;11.32;76.44;97494.06;5005930;28;20046;-75
2022/01/02 00:47:28;;;;;;;4.03;2.20;;;;;;;10.95;76.75;97476.25;5005823;28;20058;-67
2022/01/02 00:50:12;;;;;;;3.97;2.15;;;;;;;11.34;75.81;97502.84;5005580;28;20064;-75
2022/01/02 00:52:41;;;;;;;5.22;2.10;;;;;;;11.26;75.94;97496.34;5005499;28;20060;-67
2022/01/02 00:55:16;;;;;;;2.85;1.75;;;;;;;10.93;76.17;97450.84;5005222;28;20065;-67
2022/01/02 00:57:47;;;;;;;2.42;1.67;;;;;;;11.01;75.88;97470.06;5005307;28;20054;-75
2022/01/02 01:00:16;;;;;;;3.92;1.98;;;;;;;11.35;76.31;97518.34;5005002;28;20057;-67
2022/01/02 01:02:54;;;;;;;3.42;2.10;;;;;;;11.22;76.78;97525.19;5005122;28;20146;-76
2022/01/02 01:05:24;;;;;;;2.60;1.92;;;;;;;11.08;77.50;97524.88;5005301;28;20068;-68
2022/01/02 01:08:01;;;;;;;2.65;1.80;;;;;;;10.40;77.22;97425.50;5004955;28;20061;-76
2022/01/02 01:10:31;;;;;;;3.63;2.03;;;;;;;10.91;78.33;97536.34;5004608;28;20054;-67
2022/01/02 01:13:02;;;;;;;4.65;2.47;;;;;;;10.85;78.59;97537.78;5005078;28;20058;-68
2022/01/02 01:15:30;;;;;;;3.70;2.17;;;;;;;10.15;77.12;97388.13;5005040;28;20057;-75
2022/01/02 01:17:58;;;;;;;6.93;3.38;;;;;;;10.92;77.72;97543.50;5005032;28;20073;-73
2022/01/02 01:20:32;;;;;;;7.38;3.60;;;;;;;10.77;78.93;97544.31;5004626;28;20061;-67
2022/01/02 01:22:59;;;;;;;10.95;4.13;;;;;;;10.00;80.12;97452.56;5011820;28;20503;-75
2022/01/02 01:25:25;;;;;;;11.93;4.07;;;;;;;10.16;79.23;97467.22;5023073;28;20072;-68
2022/01/02 01:27:53;;;;;;;10.45;4.15;;;;;;;8.16;78.34;97129.41;5024263;28;20057;-68
2022/01/02 01:30:24;;;;;;;12.00;4.75;;;;;;;10.58;79.39;97545.03;5024753;28;20532;-75
2022/01/02 01:32:53;;;;;;;6.13;3.22;;;;;;;10.04;80.45;97470.06;5023211;28;20059;-67
2022/01/02 01:35:21;;;;;;;7.97;3.63;;;;;;;10.19;80.40;97488.69;5022763;28;20056;-75
2022/01/02 01:37:48;;;;;;;5.75;3.58;;;;;;;10.31;81.49;97541.19;5024179;28;20061;-68
2022/01/02 01:40:16;;;;;;;9.77;4.88;;;;;;;10.15;81.67;97520.19;5022624;28;20050;-67
2022/01/02 01:42:55;;;;;;;8.70;4.68;;;;;;;10.18;82.59;97542.44;5024298;28;20053;-74
2022/01/02 01:48:06;;;;;;;8.75;4.45;;;;;;;9.90;84.37;97535.28;5023918;28;20053;-66
2022/01/02 01:50:36;;;;;;;9.07;3.90;;;;;;;9.87;84.74;97552.59;5022263;28;20423;-67
2022/01/02 01:53:04;;;;;;;8.05;4.28;;;;;;;9.80;84.69;97544.13;5022897;28;20049;-66
2022/01/02 01:55:33;;;;;;;12.55;4.47;;;;;;;9.36;85.73;97534.94;5023032;28;20053;-67
2022/01/02 01:58:02;;;;;;;11.35;4.13;;;;;;;9.39;87.07;97550.81;5024085;28;20065;-68
2022/01/02 02:00:33;;;;;;;9.23;4.05;;;;;;;7.70;86.63;97266.78;5024101;28;20053;-76
2022/01/02 02:03:02;;;;;;;22.55;8.35;;;;;;;9.38;87.57;97540.13;5023848;28;20115;-67
2022/01/02 02:05:29;;;;;;;23.73;8.55;;;;;;;8.71;86.89;97388.94;5023856;28;20045;-66
2022/01/02 02:07:55;;;;;;;13.52;5.80;;;;;;;7.95;85.43;97244.69;5023839;28;20064;-74
2022/01/02 02:10:27;;;;;;;9.25;4.82;;;;;;;9.82;84.66;97523.22;5024104;28;20225;-75
2022/01/02 02:12:56;;;;;;;10.43;5.07;;;;;;;10.01;84.16;97525.31;5022256;28;20512;-66
2022/01/02 02:15:24;;;;;;;10.88;4.50;;;;;;;10.02;83.33;97538.78;5023488;28;20050;-66
2022/01/02 02:17:52;;;;;;;8.45;3.97;;;;;;;9.94;83.76;97545.28;5022212;28;20045;-75
2022/01/02 02:20:27;;;;;;;8.73;3.55;;;;;;;9.98;83.24;97537.91;5022135;28;20133;-71
2022/01/02 02:22:56;;;;;;;8.05;3.40;;;;;;;9.89;83.11;97545.56;5025617;28;20475;-75
2022/01/02 02:25:25;;;;;;;6.85;2.63;;;;;;;9.19;85.29;97532.47;5023703;28;20049;-74
2022/01/02 02:27:53;;;;;;;10.40;3.35;;;;;;;9.20;86.34;97539.59;5023750;28;20444;-67
2022/01/02 02:30:20;;;;;;;6.78;3.70;;;;;;;8.23;86.42;97383.50;5023666;28;20068;-67
2022/01/02 02:32:47;;;;;;;9.15;4.22;;;;;;;8.78;87.14;97469.22;5023591;28;20054;-75
2022/01/02 02:35:15;;;;;;;11.63;4.18;;;;;;;9.20;86.73;97539.59;5023008;28;20060;-67
2022/01/02 02:37:45;;;;;;;6.88;3.85;;;;;;;9.05;87.29;97543.09;5023898;28;20068;-74
2022/01/02 02:40:15;;;;;;;9.70;3.95;;;;;;;8.93;87.92;97573.50;5023421;28;20053;-67
2022/01/02 02:51:25;;;;;;;17.92;4.10;;;;;;;7.00;92.74;97402.13;5023554;28;20060;-74
2022/01/02 02:53:53;;;;;;;16.05;4.35;;;;;;;8.15;93.04;97552.72;5023314;28;20062;-69
2022/01/02 02:56:24;;;;;;;13.40;4.32;;;;;;;8.06;93.48;97554.78;5023694;28;20440;-73
2022/01/02 02:58:57;;;;;;;12.43;4.30;;;;;;;8.23;94.24;97549.91;5023503;28;20063;-66
2022/01/02 03:01:26;;;;;;;9.10;3.73;;;;;;;8.21;93.81;97540.31;5024043;28;20051;-67
2022/01/02 03:03:54;;;;;;;6.28;3.13;;;;;;;8.33;93.32;97559.69;5023567;28;20367;-73
2022/01/02 03:06:21;;;;;;;5.22;3.05;;;;;;;8.41;92.54;97539.47;5023372;28;20450;-66
2022/01/02 03:08:49;;;;;;;7.18;2.78;;;;;;;8.48;90.91;97559.00;5021557;28;20501;-74
2022/01/02 03:11:20;;;;;;;7.13;2.67;;;;;;;7.32;94.09;97492.25;5021409;28;20075;-75
2022/01/02 03:13:50;;;;;;;12.40;3.47;;;;;;;7.82;95.28;97571.25;5021759;28;20053;-74
2022/01/02 03:16:17;;;;;;;14.50;3.90;;;;;;;7.44;95.73;97555.72;5023551;28;20487;-75
2022/01/02 03:18:45;;;;;;;21.08;4.43;;;;;;;7.79;95.24;97585.72;5022024;28;20053;-66
2022/01/02 03:21:12;;;;;;;11.98;3.55;;;;;;;7.55;94.24;97545.88;5023070;28;20213;-65
2022/01/02 03:23:39;;;;;;;6.75;2.88;;;;;;;7.98;93.23;97602.56;5023096;28;20057;-68
2022/01/02 03:26:06;;;;;;;12.95;3.85;;;;;;;7.80;94.12;97595.59;5023039;28;20084;-73
2022/01/02 03:28:33;;;;;;;6.68;2.55;;;;;;;7.72;93.93;97598.09;5026526;28;20436;-74
2022/01/02 03:31:00;;;;;;;37.00;11.70;;;;;;;7.21;94.26;97491.06;5026544;28;20057;-67
2022/01/02 03:33:27;;;;;;;28.70;10.57;;;;;;;7.73;96.21;97596.94;5025199;28;20049;-74
2022/01/02 03:35:55;;;;;;;14.30;6.13;;;;;;;7.77;96.17;97591.56;5026622;28;20049;-67
2022/01/02 03:38:21;;;;;;;19.70;8.48;;;;;;;7.95;96.35;97595.75;5027180;28;20057;-67
2022/01/02 03:40:48;;;;;;;19.85;9.75;;;;;;;7.63;95.89;97542.22;5026352;28;20056;-75
2022/01/02 03:43:15;;;;;;;32.28;13.50;;;;;;;8.01;95.08;97568.78;5026743;28;20076;-69
2022/01/02 03:45:42;;;;;;;44.85;17.67;;;;;;;7.91;95.47;97585.75;5026307;28;20050;-66
2022/01/02 03:48:08;;;;;;;40.85;16.02;;;;;;;7.62;95.44;97543.38;5026062;28;20163;-67
2022/01/02 03:50:35;;;;;;;44.15;14.52;;;;;;;7.93;95.62;97588.97;5026016;28;20056;-67
2022/01/02 03:53:03;;;;;;;118.93;31.58;;;;;;;7.95;97.41;97592.22;5026230;28;20057;-73
2022/01/02 03:55:30;;;;;;;38.05;14.05;;;;;;;8.06;96.65;97598.91;5025910;28;20532;-66
2022/01/02 03:57:57;;;;;;;33.08;9.77;;;;;;;7.35;98.82;97562.44;5025373;28;20059;-75
2022/01/02 04:00:24;;;;;;;36.35;8.88;;;;;;;7.85;98.18;97603.66;5026937;28;20052;-67
2022/01/02 04:02:51;;;;;;;26.58;9.13;;;;;;;7.55;97.89;97547.84;5024663;28;20061;-74
2022/01/02 04:05:18;;;;;;;47.88;13.48;;;;;;;7.97;98.00;97595.41;5024774;28;20088;-67
2022/01/02 04:07:45;;;;;;;35.85;12.27;;;;;;;7.53;97.61;97526.13;5026111;28;20049;-75
2022/01/02 04:10:17;;;;;;;34.55;13.90;;;;;;;8.07;96.62;97583.97;5024532;28;20060;-74
2022/01/02 04:12:43;;;;;;;34.13;12.32;;;;;;;7.79;96.37;97533.31;5025727;28;20547;-67
2022/01/02 04:15:12;;;;;;;29.83;11.35;;;;;;;7.84;96.64;97542.16;5025701;28;20049;-66
2022/01/02 04:17:40;;;;;;;22.58;10.75;;;;;;;8.30;95.78;97605.31;5026380;28;20060;-76
2022/01/02 04:20:10;;;;;;;25.50;11.48;;;;;;;8.09;96.16;97576.16;5024487;28;20063;-72
2022/01/02 04:22:37;;;;;;;16.33;8.20;;;;;;;8.25;95.69;97602.78;5022361;28;20050;-75
2022/01/02 04:25:05;;;;;;;19.42;8.02;;;;;;;8.26;95.36;97595.31;5004275;28;20049;-75
2022/01/02 04:27:32;;;;;;;19.85;8.40;;;;;;;8.34;95.05;97610.97;5004405;28;20054;-74
2022/01/02 04:29:59;;;;;;;88.43;21.15;;;;;;;8.00;96.87;97600.28;5005993;28;20458;-74
2022/01/02 04:32:25;;;;;;;57.75;16.58;;;;;;;8.31;95.76;97618.00;5005910;28;20064;-68
2022/01/02 04:34:52;;;;;;;23.25;9.18;;;;;;;8.30;93.81;97615.56;5006005;28;20058;-75
2022/01/02 04:37:19;;;;;;;19.42;9.65;;;;;;;8.28;93.75;97617.88;5020444;28;20050;-67
2022/01/02 04:39:46;;;;;;;21.00;8.50;;;;;;;7.82;94.36;97577.56;5005346;28;20046;-73
2022/01/02 04:42:12;;;;;;;24.90;9.48;;;;;;;8.22;94.73;97625.50;5006009;28;20054;-67
2022/01/02 04:44:39;;;;;;;28.20;12.25;;;;;;;8.17;95.76;97633.22;5006161;28;20060;-73
2022/01/02 04:47:06;;;;;;;11.98;6.18;;;;;;;8.22;95.72;97624.72;5005329;28;20046;-75
2022/01/02 04:49:32;;;;;;;19.02;5.75;;;;;;;7.78;95.16;97567.56;5005610;28;20508;-75
2022/01/02 04:51:59;;;;;;;10.82;4.35;;;;;;;7.10;96.95;97511.91;5004173;28;20056;-75
2022/01/02 04:54:26;;;;;;;11.88;3.20;;;;;;;8.15;96.39;97643.78;5005841;28;20057;-67
2022/01/02 04:56:53;;;;;;;6.10;2.83;;;;;;;7.80;95.49;97587.31;5005338;28;20141;-67
2022/01/02 04:59:20;;;;;;;9.05;4.90;;;;;;;7.86;95.79;97588.72;5005666;28;20060;-68
2022/01/02 05:01:47;;;;;;;9.80;3.80;;;;;;;8.26;95.57;97647.75;5003934;28;20759;-66
2022/01/02 05:04:14;;;;;;;8.35;4.05;;;;;;;8.29;95.12;97641.53;5005162;28;20148;-75
2022/01/02 05:06:41;;;;;;;11.70;5.68;;;;;;;7.17;94.94;97446.06;5005209;28;20060;-75
2022/01/02 05:09:08;;;;;;;15.80;4.03;;;;;;;8.17;94.32;97611.13;5004510;28;20089;-67
2022/01/02 05:11:35;;;;;;;7.18;3.03;;;;;;;8.52;93.59;97656.56;5004066;28;20077;-67
2022/01/02 05:14:02;;;;;;;18.23;7.00;;;;;;;8.58;93.85;97644.16;5005092;28;20068;-74
2022/01/02 05:16:29;;;;;;;25.55;9.02;;;;;;;7.74;93.57;97504.81;5005310;28;20509;-75
2022/01/02 05:18:56;;;;;;;17.30;6.07;;;;;;;8.66;93.56;97652.31;5005049;28;20050;-67
2022/01/02 05:21:22;;;;;;;15.23;6.82;;;;;;;8.69;93.89;97650.84;5005397;28;20073;-67
2022/01/02 05:23:49;;;;;;;20.83;7.60;;;;;;;8.37;93.39;97568.88;5017479;28;20064;-65
2022/01/02 05:26:16;;;;;;;24.38;9.63;;;;;;;8.68;93.90;97632.63;5024628;28;20071;-74
2022/01/02 05:28:42;;;;;;;27.52;12.35;;;;;;;8.33;93.40;97567.97;5023233;28;20567;-74
2022/01/02 05:31:09;;;;;;;29.15;14.70;;;;;;;8.91;92.51;97656.75;5022325;28;20060;-69
2022/01/02 05:33:36;;;;;;;33.50;16.13;;;;;;;7.83;93.00;97514.94;5024431;28;20052;-75
2022/01/02 05:36:03;;;;;;;36.70;18.83;;;;;;;8.77;93.20;97630.59;5022840;28;20092;-67
2022/01/02 05:38:29;;;;;;;49.67;21.38;;;;;;;8.91;93.08;97642.13;5024298;28;20049;-68
2022/01/02 05:40:57;;;;;;;52.53;23.50;;;;;;;8.60;93.06;97586.63;5023049;28;20075;-75
2022/01/02 05:43:24;;;;;;;63.28;26.67;;;;;;;8.90;92.86;97626.66;5023838;28;20516;-67
2022/01/02 05:45:51;;;;;;;76.57;31.90;;;;;;;5.67;90.99;97080.91;5024176;28;20052;-68
2022/01/02 05:48:18;;;;;;;75.28;31.65;;;;;;;9.00;92.54;97671.25;5023746;28;20587;-67
2022/01/02 05:50:45;;;;;;;72.45;32.42;;;;;;;9.04;92.59;97668.59;5021716;28;20049;-74
2022/01/02 05:53:11;;;;;;;69.97;33.30;;;;;;;8.70;92.91;97613.78;5022960;28;20491;-67
2022/01/02 05:55:43;;;;;;;39.72;18.45;;;;;;;8.88;94.11;97676.75;5022429;28;20410;-68
2022/01/02 05:58:10;;;;;;;28.83;15.27;;;;;;;8.69;94.06;97637.03;5024358;28;20532;-74
2022/01/02 06:00:36;;;;;;;36.92;18.25;;;;;;;8.92;94.60;97660.28;5024312;28;20045;-75
2022/01/02 06:03:03;;;;;;;26.80;16.00;;;;;;;8.52;94.68;97595.84;5023085;28;20773;-76
2022/01/02 06:05:30;;;;;;;21.63;10.55;;;;;;;8.66;94.86;97663.38;5023868;28;20049;-71
2022/01/02 06:07:57;;;;;;;16.63;8.25;;;;;;;8.65;95.14;97672.00;5023897;28;20475;-69
2022/01/02 06:10:25;;;;;;;14.75;7.20;;;;;;;8.51;94.98;97660.47;5023434;28;20069;-67
2022/01/02 06:12:52;;;;;;;15.27;7.32;;;;;;;8.53;95.06;97649.88;5023945;28;20417;-74
2022/01/02 06:15:18;;;;;;;16.17;7.63;;;;;;;8.64;94.38;97686.97;5021985;28;20056;-67
2022/01/02 06:17:45;;;;;;;13.85;7.57;;;;;;;8.52;94.73;97679.44;5023704;28;20057;-75
2022/01/02 06:20:12;;;;;;;16.48;8.93;;;;;;;8.71;92.58;97695.50;5023548;28;20049;-66
2022/01/02 06:22:39;;;;;;;15.18;8.65;;;;;;;8.63;93.13;97691.66;5020500;28;20045;-68
2022/01/02 06:25:06;;;;;;;22.25;12.10;;;;;;;8.83;91.79;97695.50;5004373;28;20136;-66
2022/01/02 06:27:34;;;;;;;27.48;15.20;;;;;;;8.40;91.65;97639.97;5004179;28;20056;-73
2022/01/02 06:30:01;;;;;;;31.70;15.55;;;;;;;8.91;91.68;97709.25;5002229;28;20054;-67
2022/01/02 06:32:27;;;;;;;30.35;16.88;;;;;;;8.79;91.33;97683.53;5004064;28;20046;-66
2022/01/02 06:34:54;;;;;;;44.20;22.02;;;;;;;9.06;91.21;97704.97;5002322;28;20078;-66
2022/01/02 06:37:21;;;;;;;61.67;32.90;;;;;;;8.63;89.81;97682.59;5002852;28;20057;-74
2022/01/02 06:39:48;;;;;;;48.28;27.95;;;;;;;9.08;89.49;97727.53;5002131;28;20388;-73
2022/01/02 06:42:14;;;;;;;37.50;21.85;;;;;;;8.99;89.95;97737.91;5004267;28;20054;-74
2022/01/02 06:44:41;;;;;;;30.08;16.27;;;;;;;9.06;90.46;97724.31;5003916;28;20069;-68
2022/01/02 06:47:08;;;;;;;36.88;19.73;;;;;;;8.75;90.42;97666.03;5003945;28;20046;-67
2022/01/02 06:49:35;;;;;;;38.65;21.10;;;;;;;8.87;90.34;97668.78;5003485;28;20418;-68
2022/01/02 06:52:02;;;;;;;48.28;26.10;;;;;;;9.30;90.44;97726.28;5003864;28;20062;-74
2022/01/02 06:54:29;;;;;;;94.47;40.78;;;;;;;9.57;90.19;97739.41;5002883;28;20097;-74
2022/01/02 06:56:56;;;;;;;100.10;44.78;;;;;;;9.13;88.66;97645.22;5003816;28;20137;-74
2022/01/02 06:59:23;;;;;;;67.85;33.38;;;;;;;9.71;87.01;97721.31;5003967;28;20058;-74
2022/01/02 07:01:49;;;;;;;98.10;55.90;;;;;;;9.60;86.49;97706.34;5004602;28;20046;-68
2022/01/02 07:04:17;;;;;;;64.15;34.53;;;;;;;9.50;86.03;97709.56;5005739;28;20135;-68
2022/01/02 07:06:43;;;;;;;52.80;29.65;;;;;;;9.76;85.67;97690.66;5005461;28;20057;-67
2022/01/02 07:09:10;;;;;;;76.78;37.78;;;;;;;10.17;84.81;97739.34;5005122;28;20057;-67
2022/01/02 07:11:37;;;;;;;65.07;32.67;;;;;;;10.28;83.89;97744.03;5005629;28;20089;-64
2022/01/02 07:14:03;;;;;;;32.40;18.75;;;;;;;10.00;83.58;97692.53;5007516;28;20053;-64
2022/01/02 07:16:30;;;;;;;26.17;14.20;;;;;;;10.40;83.53;97746.75;5007207;28;20061;-64
2022/01/02 07:18:57;;;;;;;32.17;17.95;;;;;;;10.39;83.98;97731.31;5006814;28;20054;-67
2022/01/02 07:21:24;;;;;;;28.15;13.38;;;;;;;10.43;83.66;97726.66;5006792;28;20050;-64
2022/01/02 07:23:53;;;;;;;20.95;13.18;;;;;;;10.73;83.71;97745.69;5026876;28;20061;-67
2022/01/02 07:26:19;;;;;;;21.70;12.77;;;;;;;10.84;82.34;97763.44;5025174;28;20487;-64
2022/01/02 07:28:46;;;;;;;31.20;15.35;;;;;;;11.08;81.76;97758.53;5026201;28;20056;-64
2022/01/02 07:31:12;;;;;;;28.55;16.08;;;;;;;11.27;81.28;97746.75;5024968;28;20053;-67
2022/01/02 07:33:39;;;;;;;33.22;17.17;;;;;;;11.40;80.59;97748.25;5026671;28;20496;-66
2022/01/02 07:36:06;;;;;;;26.17;14.50;;;;;;;11.63;80.21;97746.50;5024733;28;20132;-67
2022/01/02 07:38:33;;;;;;;25.33;13.40;;;;;;;11.76;78.02;97756.34;5026258;28;20550;-65
2022/01/02 07:41:00;;;;;;;14.27;8.35;;;;;;;11.80;76.26;97752.47;5025911;28;20060;-64
2022/01/02 07:43:26;;;;;;;13.25;7.30;;;;;;;11.23;76.75;97693.16;5025936;28;20049;-67
2022/01/02 07:45:53;;;;;;;10.30;5.90;;;;;;;11.19;77.17;97697.81;5024868;28;20057;-67
2022/01/02 07:48:20;;;;;;;11.02;6.20;;;;;;;11.49;78.17;97746.13;5025089;28;20053;-66
2022/01/02 07:50:46;;;;;;;15.82;8.30;;;;;;;10.99;78.74;97683.06;5025669;28;20050;-63
2022/01/02 07:53:13;;;;;;;14.70;7.22;;;;;;;11.12;78.99;97708.72;5025733;28;20049;-67
2022/01/02 07:55:40;;;;;;;12.23;6.63;;;;;;;11.10;78.71;97716.59;5025790;28;20346;-64
2022/01/02 07:58:11;;;;;;;17.20;6.28;;;;;;;11.29;78.31;97725.00;5025807;28;20496;-67
2022/01/02 08:00:38;;;;;;;17.00;7.65;;;;;;;11.34;77.61;97697.00;5024477;28;20083;-63
2022/01/02 08:03:05;;;;;;;17.65;9.05;;;;;;;11.84;76.60;97752.53;5024424;28;20049;-64
2022/01/02 08:05:37;;;;;;;19.23;9.93;;;;;;;11.97;76.53;97731.81;5024205;28;20443;-64
2022/01/02 08:08:04;;;;;;;16.35;8.00;;;;;;;12.07;75.83;97726.53;5025977;28;20132;-64
2022/01/02 08:10:31;;;;;;;16.23;8.00;;;;;;;12.16;75.71;97731.84;5025276;28;20065;-65
2022/01/02 08:12:57;;;;;;;17.50;7.43;;;;;;;12.46;74.09;97738.47;5024921;28;20057;-64
2022/01/02 08:15:24;;;;;;;13.35;6.20;;;;;;;12.80;71.70;97740.34;5025422;28;20049;-64
2022/01/02 08:17:51;;;;;;;7.63;4.75;;;;;;;13.07;71.22;97744.84;5025497;28;20068;-67
2022/01/02 08:20:18;;;;;;;8.88;5.35;;;;;;;12.77;71.06;97663.22;5023487;28;20052;-64
2022/01/02 08:22:44;;;;;;;11.75;5.82;;;;;;;13.48;69.96;97732.88;5025252;28;20059;-64
2022/01/02 08:25:11;;;;;;;10.43;5.85;;;;;;;13.69;67.26;97721.28;5025116;28;20049;-63
2022/01/02 08:27:38;;;;;;;15.18;9.98;;;;;;;13.78;67.64;97707.09;5025449;28;20049;-64
2022/01/02 08:30:06;;;;;;;10.07;6.47;;;;;;;14.04;66.84;97737.72;5025209;28;20424;-64
2022/01/02 08:32:33;;;;;;;9.95;5.60;;;;;;;13.81;65.02;97701.59;5025551;28;20058;-64
2022/01/02 08:35:00;;;;;;;10.82;6.00;;;;;;;14.16;65.62;97745.84;5025012;28;20531;-67
2022/01/02 08:37:26;;;;;;;8.63;5.32;;;;;;;14.27;65.32;97741.28;5025486;28;20061;-67
2022/01/02 08:39:53;;;;;;;9.70;5.60;;;;;;;14.38;64.44;97736.66;5024894;28;20575;-67
2022/01/02 08:42:20;;;;;;;16.80;7.50;;;;;;;14.54;63.94;97746.41;5024725;28;20057;-65
2022/01/02 08:44:46;;;;;;;9.27;4.68;;;;;;;14.05;64.17;97680.84;5025068;28;20049;-64
2022/01/02 08:47:13;;;;;;;4.63;3.25;;;;;;;14.52;61.90;97742.41;5025096;28;20535;-63
2022/01/02 08:49:40;;;;;;;4.70;3.38;;;;;;;14.63;61.31;97737.75;5024439;28;20063;-69
2022/01/02 08:52:07;;;;;;;3.83;2.88;;;;;;;14.76;61.09;97736.31;5024821;28;20045;-69
2022/01/02 08:54:34;;;;;;;6.60;3.47;;;;;;;14.87;61.05;97726.09;5023047;28;20057;-65
2022/01/02 08:57:02;;;;;;;7.22;3.97;;;;;;;14.57;60.27;97691.88;5024992;28;20423;-73
2022/01/02 08:59:29;;;;;;;4.35;2.45;;;;;;;15.06;58.82;97728.69;5024241;28;20420;-71
2022/01/02 09:01:57;;;;;;;3.53;2.80;;;;;;;14.99;58.78;97706.28;5025121;28;20855;-63
2022/01/02 09:04:23;;;;;;;3.78;2.55;;;;;;;14.85;59.61;97694.97;5025574;28;20064;-76
2022/01/02 09:06:50;;;;;;;4.72;3.22;;;;;;;15.08;59.37;97737.47;5025111;28;20100;-67
2022/01/02 09:09:17;;;;;;;4.10;2.85;;;;;;;14.58;60.54;97738.09;5025338;28;20060;-68
2022/01/02 09:11:45;;;;;;;3.70;3.05;;;;;;;14.39;61.46;97733.47;5024518;28;20618;-67
2022/01/02 09:14:12;;;;;;;5.78;2.95;;;;;;;14.18;63.01;97683.00;5024315;28;20107;-77
2022/01/02 09:16:44;;;;;;;4.10;2.70;;;;;;;14.65;61.31;97738.19;5024684;28;20084;-69
2022/01/02 09:19:12;;;;;;;3.92;3.10;;;;;;;14.69;60.77;97713.91;5024862;28;20056;-68
2022/01/02 09:21:39;;;;;;;5.82;3.67;;;;;;;14.68;60.25;97674.09;5024105;28;20188;-68
2022/01/02 09:24:06;;;;;;;4.97;3.17;;;;;;;15.27;59.12;97748.44;5009597;28;20572;-74
2022/01/02 09:26:33;;;;;;;3.53;2.28;;;;;;;15.37;57.76;97739.38;5005226;28;20057;-66
2022/01/02 09:29:00;;;;;;;3.22;2.15;;;;;;;14.76;58.83;97641.50;5003261;28;20054;-69
2022/01/02 09:31:27;;;;;;;5.22;2.90;;;;;;;15.35;58.92;97696.28;5004583;28;20046;-72
2022/01/02 09:33:54;;;;;;;9.70;5.88;;;;;;;15.62;58.87;97718.06;5004413;28;20062;-74
2022/01/02 09:36:20;;;;;;;7.47;4.28;;;;;;;15.49;59.45;97696.44;5004791;28;20418;-68
2022/01/02 09:38:47;;;;;;;6.00;3.47;;;;;;;15.84;58.77;97708.66;5004252;28;20050;-72
2022/01/02 09:41:14;;;;;;;4.70;2.67;;;;;;;15.65;58.17;97683.78;5004848;28;20460;-71
2022/01/02 09:43:41;;;;;;;7.82;4.22;;;;;;;15.66;59.76;97702.16;5004578;28;20057;-74
2022/01/02 09:46:08;;;;;;;4.93;3.30;;;;;;;15.53;58.80;97664.53;5003182;28;20054;-69
2022/01/02 09:48:35;;;;;;;9.40;6.03;;;;;;;15.86;58.52;97697.91;5003172;28;20057;-74
2022/01/02 09:51:01;;;;;;;21.45;14.07;;;;;;;15.80;57.80;97654.78;5004776;28;20062;-74
2022/01/02 09:53:28;;;;;;;17.80;9.18;;;;;;;16.08;57.90;97691.25;5003087;28;20054;-69
2022/01/02 09:55:55;;;;;;;8.52;4.80;;;;;;;15.63;56.64;97610.78;5002699;28;20141;-73
2022/01/02 09:58:22;;;;;;;7.25;4.38;;;;;;;16.06;56.01;97643.34;5003870;28;20387;-68
2022/01/02 10:00:49;;;;;;;7.55;4.38;;;;;;;16.31;56.83;97672.19;5004381;28;20070;-73
2022/01/02 10:03:17;;;;;;;5.07;3.67;;;;;;;16.38;55.13;97682.63;5004391;28;20556;-69
2022/01/02 10:05:54;;;;;;;3.95;2.65;;;;;;;16.48;54.22;97671.53;5003927;28;20064;-67
2022/01/02 10:08:28;;;;;;;3.40;2.47;;;;;;;15.94;54.68;97598.97;5004678;28;20418;-67
2022/01/02 10:11:06;;;;;;;3.17;2.17;;;;;;;16.39;54.36;97673.84;5002226;28;20057;-73
2022/01/02 10:14:05;;;;;;;7.85;2.28;;;;;;;16.49;54.75;97672.31;5002443;28;20054;-67
2022/01/02 10:16:41;;;;;;;2.65;1.80;;;;;;;16.18;54.17;97617.84;5004110;28;20568;-73
2022/01/02 10:19:21;;;;;;;6.25;2.53;;;;;;;16.66;53.82;97681.97;5002076;28;20366;-68
2022/01/02 10:21:57;;;;;;;6.18;3.05;;;;;;;16.68;54.30;97685.19;5004132;28;20050;-74
2022/01/02 10:24:27;;;;;;;3.50;2.33;;;;;;;16.52;52.96;97644.38;5019806;28;20072;-74
2022/01/02 10:27:10;;;;;;;4.53;2.78;;;;;;;16.86;52.73;97669.25;5023956;28;20054;-73
2022/01/02 10:29:51;;;;;;;3.45;2.40;;;;;;;17.02;53.02;97661.28;5021943;28;20063;-69
2022/01/02 10:32:39;;;;;;;3.03;2.00;;;;;;;17.04;53.09;97636.50;5023728;28;20056;-72
2022/01/02 10:35:15;;;;;;;2.70;2.03;;;;;;;17.35;52.47;97652.50;5022031;28;20049;-67
2022/01/02 10:37:49;;;;;;;2.05;1.85;;;;;;;17.10;50.75;97567.72;5026399;28;20054;-73
2022/01/02 10:40:38;;;;;;;5.70;3.67;;;;;;;17.23;50.90;97616.50;5027396;28;20053;-73
2022/01/02 10:43:06;;;;;;;6.18;3.22;;;;;;;17.42;50.87;97649.72;5028151;28;20045;-68
2022/01/02 10:45:33;;;;;;;3.65;2.53;;;;;;;17.54;51.20;97638.13;5026160;28;20560;-73
2022/01/02 10:48:00;;;;;;;5.57;2.80;;;;;;;17.68;49.84;97643.72;5027717;28;20064;-73
2022/01/02 10:50:35;;;;;;;2.72;1.92;;;;;;;17.68;49.10;97643.72;5027439;28;20136;-69
2022/01/02 10:53:13;;;;;;;3.08;2.65;;;;;;;17.51;49.96;97606.13;5027254;28;20052;-71
2022/01/02 10:55:43;;;;;;;3.03;2.03;;;;;;;17.74;48.99;97628.09;5041667;28;20061;-68
2022/01/02 10:58:11;;;;;;;5.18;2.72;;;;;;;17.62;49.30;97601.31;5026840;28;20049;-69
2022/01/02 11:00:38;;;;;;;2.80;2.42;;;;;;;17.73;50.27;97613.31;5025743;28;20141;-68
2022/01/02 11:03:07;;;;;;;5.55;3.35;;;;;;;17.62;49.08;97603.31;5025992;28;20220;-70
2022/01/02 11:05:36;;;;;;;2.95;2.47;;;;;;;17.28;49.63;97520.88;5026587;28;20610;-69
2022/01/02 11:08:04;;;;;;;7.15;3.58;;;;;;;17.94;48.73;97618.84;5026780;28;20278;-72
2022/01/02 11:10:33;;;;;;;4.45;3.03;;;;;;;17.66;48.88;97578.88;5026146;28;20649;-71
2022/01/02 11:13:00;;;;;;;4.25;2.60;;;;;;;18.21;48.40;97599.53;5026958;28;20428;-73
2022/01/02 11:15:28;;;;;;;2.70;2.22;;;;;;;18.28;47.88;97605.09;5026906;28;20061;-73
2022/01/02 11:17:55;;;;;;;3.30;2.50;;;;;;;18.09;48.45;97588.75;5027061;28;20092;-70
2022/01/02 11:20:26;;;;;;;8.35;4.05;;;;;;;18.30;48.10;97607.50;5026614;28;20084;-71
2022/01/02 11:22:59;;;;;;;4.45;2.90;;;;;;;18.26;47.47;97601.91;5022317;28;20050;-69
2022/01/02 11:25:49;;;;;;;3.10;2.43;;;;;;;18.10;48.57;97605.19;5005589;28;20062;-71
2022/01/02 11:28:39;;;;;;;3.10;2.65;;;;;;;18.33;47.76;97613.09;5007210;28;20062;-71
2022/01/02 11:31:27;;;;;;;3.85;2.65;;;;;;;18.17;46.76;97573.50;5007170;28;20065;-68
2022/01/02 11:33:54;;;;;;;3.28;2.22;;;;;;;18.41;47.34;97592.25;5006947;28;20057;-71
2022/01/02 11:36:24;;;;;;;3.33;2.35;;;;;;;18.18;47.72;97555.47;5006966;28;20045;-71
2022/01/02 11:39:03;;;;;;;4.63;2.10;;;;;;;18.72;47.42;97604.50;5006776;28;20053;-71
2022/01/02 11:41:52;;;;;;;3.70;2.67;;;;;;;18.52;46.76;97548.13;5006203;28;20050;-70
2022/01/02 11:44:21;;;;;;;4.45;2.05;;;;;;;19.02;46.46;97610.31;5006162;28;20133;-72
2022/01/02 11:46:54;;;;;;;2.80;2.00;;;;;;;18.92;45.73;97612.00;5005913;28;20054;-73
2022/01/02 11:49:43;;;;;;;3.50;2.65;;;;;;;19.07;46.03;97615.50;5006268;28;20049;-70
2022/01/02 11:52:31;;;;;;;3.33;2.67;;;;;;;18.86;46.25;97591.19;5004855;28;20053;-70